KLE YSCB-YSHL
Flight info
| Callsign | KLE |
|---|---|
| Flight time | N/A |
| Altitude | 5500 |
| Route | YSCB LBT YSHL |
| Aircraft | P28A/L-S/EB1 |
Departure
| Time | 2026-05-01 11:25 |
|---|---|
| Airport | Canberra Airport (YSCB) |
Arrival
| Time | N/A |
|---|---|
| Airport | Shellharbour Airport (YSHL) |
| Time | Latitude | Longitude | Altitude | Speed | Heading |
|---|---|---|---|---|---|
| 2026-05-01 11:12 | -35.30326 | 149.18641 | 1874 ft | 0 kts | 311° |
| 2026-05-01 11:18 | -35.30322 | 149.18634 | 1874 ft | 5 kts | 297° |
| 2026-05-01 11:18 | -35.30350 | 149.18578 | 1874 ft | 7 kts | 216° |
| 2026-05-01 11:18 | -35.30384 | 149.18611 | 1874 ft | 8 kts | 115° |
| 2026-05-01 11:18 | -35.30347 | 149.18662 | 1874 ft | 10 kts | 38° |
| 2026-05-01 11:19 | -35.30317 | 149.18708 | 1874 ft | 6 kts | 124° |
| 2026-05-01 11:19 | -35.30350 | 149.18756 | 1874 ft | 9 kts | 129° |
| 2026-05-01 11:19 | -35.30396 | 149.18823 | 1874 ft | 12 kts | 131° |
| 2026-05-01 11:19 | -35.30458 | 149.18901 | 1874 ft | 13 kts | 136° |
| 2026-05-01 11:20 | -35.30511 | 149.18978 | 1874 ft | 11 kts | 130° |
| 2026-05-01 11:20 | -35.30545 | 149.19027 | 1874 ft | 11 kts | 129° |
| 2026-05-01 11:20 | -35.30594 | 149.19099 | 1874 ft | 11 kts | 130° |
| 2026-05-01 11:20 | -35.30640 | 149.19166 | 1874 ft | 10 kts | 130° |
| 2026-05-01 11:21 | -35.30685 | 149.19224 | 1874 ft | 9 kts | 149° |
| 2026-05-01 11:21 | -35.30743 | 149.19239 | 1874 ft | 8 kts | 180° |
| 2026-05-01 11:21 | -35.30801 | 149.19239 | 1874 ft | 9 kts | 180° |
| 2026-05-01 11:21 | -35.30878 | 149.19239 | 1874 ft | 13 kts | 179° |
| 2026-05-01 11:22 | -35.30967 | 149.19239 | 1874 ft | 13 kts | 179° |
| 2026-05-01 11:22 | -35.31060 | 149.19239 | 1874 ft | 14 kts | 180° |
| 2026-05-01 11:22 | -35.31158 | 149.19239 | 1874 ft | 14 kts | 180° |
| 2026-05-01 11:22 | -35.31260 | 149.19240 | 1874 ft | 15 kts | 180° |
| 2026-05-01 11:23 | -35.31365 | 149.19240 | 1874 ft | 15 kts | 179° |
| 2026-05-01 11:23 | -35.31445 | 149.19278 | 1874 ft | 11 kts | 132° |
| 2026-05-01 11:23 | -35.31462 | 149.19308 | 1874 ft | 0 kts | 113° |
| 2026-05-01 11:24 | -35.31470 | 149.19344 | 1874 ft | 10 kts | 99° |
| 2026-05-01 11:24 | -35.31470 | 149.19435 | 1874 ft | 7 kts | 65° |
| 2026-05-01 11:24 | -35.31071 | 149.19447 | 1874 ft | 70 kts | 359° |
| 2026-05-01 11:25 | -35.30509 | 149.19454 | 1993 ft | 85 kts | 360° |
| 2026-05-01 11:25 | -35.29304 | 149.19514 | 2440 ft | 83 kts | 20° |
| 2026-05-01 11:25 | -35.28870 | 149.19936 | 2663 ft | 81 kts | 57° |
| 2026-05-01 11:26 | -35.28657 | 149.20545 | 2917 ft | 72 kts | 64° |
| 2026-05-01 11:26 | -35.28197 | 149.21632 | 3266 ft | 72 kts | 62° |
| 2026-05-01 11:26 | -35.28004 | 149.22137 | 3570 ft | 60 kts | 58° |
| 2026-05-01 11:27 | -35.27803 | 149.22599 | 3768 ft | 60 kts | 52° |
| 2026-05-01 11:27 | -35.27541 | 149.23016 | 3956 ft | 62 kts | 43° |
| 2026-05-01 11:27 | -35.27199 | 149.23361 | 4099 ft | 67 kts | 39° |
| 2026-05-01 11:27 | -35.26890 | 149.23788 | 4287 ft | 65 kts | 51° |
| 2026-05-01 11:28 | -35.26636 | 149.24255 | 4469 ft | 66 kts | 56° |
| 2026-05-01 11:28 | -35.26401 | 149.24736 | 4630 ft | 69 kts | 54° |
| 2026-05-01 11:28 | -35.26148 | 149.25223 | 4802 ft | 67 kts | 53° |
| 2026-05-01 11:29 | -35.25630 | 149.26186 | 5117 ft | 68 kts | 54° |
| 2026-05-01 11:29 | -35.25405 | 149.26690 | 5276 ft | 69 kts | 59° |
| 2026-05-01 11:29 | -35.24982 | 149.27798 | 5510 ft | 83 kts | 60° |
| 2026-05-01 11:30 | -35.24719 | 149.28464 | 5517 ft | 90 kts | 60° |
| 2026-05-01 11:30 | -35.24442 | 149.29162 | 5523 ft | 93 kts | 61° |
| 2026-05-01 11:30 | -35.24165 | 149.29885 | 5556 ft | 92 kts | 62° |
| 2026-05-01 11:30 | -35.23921 | 149.30599 | 5546 ft | 93 kts | 64° |
| 2026-05-01 11:31 | -35.23649 | 149.31305 | 5575 ft | 92 kts | 56° |
| 2026-05-01 11:31 | -35.23283 | 149.31944 | 5587 ft | 91 kts | 51° |
| 2026-05-01 11:31 | -35.22897 | 149.32575 | 5572 ft | 93 kts | 48° |
| 2026-05-01 11:31 | -35.22482 | 149.33195 | 5561 ft | 94 kts | 50° |
| 2026-05-01 11:32 | -35.22097 | 149.33837 | 5559 ft | 96 kts | 52° |
| 2026-05-01 11:32 | -35.21737 | 149.34525 | 5557 ft | 96 kts | 55° |
| 2026-05-01 11:32 | -35.21378 | 149.35204 | 5566 ft | 95 kts | 53° |
| 2026-05-01 11:32 | -35.21013 | 149.35892 | 5540 ft | 98 kts | 55° |
| 2026-05-01 11:33 | -35.20674 | 149.36605 | 5541 ft | 96 kts | 58° |
| 2026-05-01 11:33 | -35.20348 | 149.37327 | 5500 ft | 98 kts | 58° |
| 2026-05-01 11:33 | -35.20032 | 149.38050 | 5504 ft | 95 kts | 60° |
| 2026-05-01 11:33 | -35.19737 | 149.38759 | 5472 ft | 96 kts | 60° |
| 2026-05-01 11:34 | -35.19437 | 149.39473 | 5502 ft | 94 kts | 60° |
| 2026-05-01 11:34 | -35.19092 | 149.40154 | 5512 ft | 94 kts | 50° |
| 2026-05-01 11:34 | -35.18689 | 149.40777 | 5524 ft | 93 kts | 52° |
| 2026-05-01 11:34 | -35.18302 | 149.41434 | 5502 ft | 96 kts | 54° |
| 2026-05-01 11:35 | -35.17968 | 149.42115 | 5530 ft | 93 kts | 58° |
| 2026-05-01 11:35 | -35.17653 | 149.42819 | 5513 ft | 94 kts | 61° |
| 2026-05-01 11:35 | -35.17370 | 149.43532 | 5520 ft | 94 kts | 61° |
| 2026-05-01 11:35 | -35.17082 | 149.44261 | 5493 ft | 96 kts | 62° |
| 2026-05-01 11:36 | -35.16769 | 149.44960 | 5522 ft | 92 kts | 56° |
| 2026-05-01 11:36 | -35.16416 | 149.45628 | 5509 ft | 95 kts | 55° |
| 2026-05-01 11:36 | -35.16065 | 149.46301 | 5528 ft | 93 kts | 56° |
| 2026-05-01 11:36 | -35.15727 | 149.46980 | 5514 ft | 94 kts | 57° |
| 2026-05-01 11:37 | -35.15407 | 149.47678 | 5518 ft | 94 kts | 59° |
| 2026-05-01 11:37 | -35.15103 | 149.48374 | 5532 ft | 92 kts | 57° |
| 2026-05-01 11:37 | -35.14774 | 149.49056 | 5513 ft | 94 kts | 57° |
| 2026-05-01 11:37 | -35.14465 | 149.49756 | 5527 ft | 93 kts | 59° |
| 2026-05-01 11:38 | -35.14175 | 149.50456 | 5564 ft | 92 kts | 58° |
| 2026-05-01 11:38 | -35.13830 | 149.51121 | 5571 ft | 93 kts | 55° |
| 2026-05-01 11:38 | -35.13498 | 149.51789 | 5606 ft | 91 kts | 57° |
| 2026-05-01 11:38 | -35.13177 | 149.52476 | 5569 ft | 95 kts | 59° |
| 2026-05-01 11:39 | -35.12857 | 149.53181 | 5575 ft | 95 kts | 58° |
| 2026-05-01 11:39 | -35.12548 | 149.53886 | 5579 ft | 93 kts | 59° |
| 2026-05-01 11:39 | -35.12233 | 149.54589 | 5550 ft | 95 kts | 58° |
| 2026-05-01 11:39 | -35.11911 | 149.55291 | 5563 ft | 94 kts | 58° |
| 2026-05-01 11:40 | -35.11576 | 149.55987 | 5543 ft | 96 kts | 58° |
| 2026-05-01 11:40 | -35.11266 | 149.56702 | 5560 ft | 94 kts | 61° |
| 2026-05-01 11:40 | -35.10964 | 149.57418 | 5546 ft | 96 kts | 60° |
| 2026-05-01 11:40 | -35.10674 | 149.58149 | 5557 ft | 95 kts | 61° |
| 2026-05-01 11:41 | -35.10371 | 149.58863 | 5562 ft | 95 kts | 60° |
| 2026-05-01 11:41 | -35.10081 | 149.59589 | 5558 ft | 96 kts | 62° |
| 2026-05-01 11:41 | -35.09821 | 149.60339 | 5558 ft | 95 kts | 64° |
| 2026-05-01 11:41 | -35.09554 | 149.61055 | 5575 ft | 91 kts | 53° |
| 2026-05-01 11:42 | -35.09059 | 149.61514 | 5571 ft | 92 kts | 22° |
| 2026-05-01 11:42 | -35.08448 | 149.61740 | 5545 ft | 93 kts | 20° |
| 2026-05-01 11:42 | -35.07831 | 149.61959 | 5578 ft | 90 kts | 18° |
| 2026-05-01 11:42 | -35.07220 | 149.62147 | 5562 ft | 92 kts | 17° |
| 2026-05-01 11:43 | -35.06590 | 149.62291 | 5559 ft | 94 kts | 10° |
| 2026-05-01 11:43 | -35.05947 | 149.62366 | 5569 ft | 93 kts | 8° |
| 2026-05-01 11:43 | -35.05300 | 149.62410 | 5584 ft | 93 kts | 9° |
| 2026-05-01 11:44 | -35.03995 | 149.62558 | 5585 ft | 93 kts | 10° |
| 2026-05-01 11:44 | -35.03344 | 149.62653 | 5560 ft | 95 kts | 12° |
| 2026-05-01 11:44 | -35.02700 | 149.62774 | 5573 ft | 93 kts | 13° |
| 2026-05-01 11:44 | -35.02068 | 149.62889 | 5557 ft | 94 kts | 11° |
| 2026-05-01 11:45 | -35.01417 | 149.62974 | 5562 ft | 93 kts | 10° |
| 2026-05-01 11:45 | -35.00773 | 149.63078 | 5550 ft | 94 kts | 14° |
| 2026-05-01 11:45 | -35.00129 | 149.63215 | 5557 ft | 93 kts | 14° |
| 2026-05-01 11:45 | -34.99493 | 149.63363 | 5561 ft | 93 kts | 16° |
| 2026-05-01 11:46 | -34.98863 | 149.63537 | 5558 ft | 93 kts | 17° |
| 2026-05-01 11:46 | -34.98231 | 149.63723 | 5564 ft | 93 kts | 17° |
| 2026-05-01 11:46 | -34.97606 | 149.63908 | 5556 ft | 93 kts | 17° |
| 2026-05-01 11:46 | -34.96975 | 149.64087 | 5553 ft | 92 kts | 17° |
| 2026-05-01 11:47 | -34.96351 | 149.64254 | 5543 ft | 93 kts | 15° |
| 2026-05-01 11:47 | -34.95716 | 149.64408 | 5540 ft | 93 kts | 15° |
| 2026-05-01 11:47 | -34.95077 | 149.64540 | 5534 ft | 93 kts | 13° |
| 2026-05-01 11:47 | -34.94432 | 149.64643 | 5531 ft | 94 kts | 11° |
| 2026-05-01 11:48 | -34.93779 | 149.64710 | 5529 ft | 94 kts | 8° |
| 2026-05-01 11:48 | -34.93123 | 149.64733 | 5529 ft | 94 kts | 8° |
| 2026-05-01 11:48 | -34.92477 | 149.64836 | 5509 ft | 94 kts | 13° |
| 2026-05-01 11:48 | -34.91828 | 149.64943 | 5512 ft | 94 kts | 11° |
| 2026-05-01 11:49 | -34.91176 | 149.65007 | 5510 ft | 94 kts | 8° |
| 2026-05-01 11:49 | -34.90568 | 149.65038 | 5400 ft | 83 kts | 9° |
| 2026-05-01 11:49 | -34.90000 | 149.65081 | 5197 ft | 82 kts | 8° |
| 2026-05-01 11:49 | -34.89426 | 149.65116 | 5018 ft | 81 kts | 10° |
| 2026-05-01 11:50 | -34.88889 | 149.65187 | 4901 ft | 76 kts | 13° |
| 2026-05-01 11:50 | -34.88370 | 149.65271 | 4745 ft | 75 kts | 11° |
| 2026-05-01 11:50 | -34.87845 | 149.65312 | 4589 ft | 75 kts | 9° |
| 2026-05-01 11:50 | -34.87335 | 149.65363 | 4426 ft | 73 kts | 12° |
| 2026-05-01 11:51 | -34.86852 | 149.65496 | 4284 ft | 70 kts | 22° |
| 2026-05-01 11:51 | -34.86416 | 149.65747 | 4147 ft | 68 kts | 33° |
| 2026-05-01 11:51 | -34.86034 | 149.66085 | 4005 ft | 69 kts | 37° |
| 2026-05-01 11:51 | -34.85658 | 149.66448 | 3872 ft | 68 kts | 41° |
| 2026-05-01 11:52 | -34.85316 | 149.66849 | 3723 ft | 68 kts | 43° |
| 2026-05-01 11:52 | -34.84998 | 149.67269 | 3586 ft | 66 kts | 46° |
| 2026-05-01 11:52 | -34.84691 | 149.67684 | 3428 ft | 67 kts | 45° |
| 2026-05-01 11:52 | -34.84367 | 149.68113 | 3239 ft | 73 kts | 48° |
| 2026-05-01 11:53 | -34.84024 | 149.68594 | 3146 ft | 77 kts | 47° |
| 2026-05-01 11:53 | -34.83658 | 149.69072 | 3058 ft | 77 kts | 49° |
| 2026-05-01 11:53 | -34.83293 | 149.69562 | 2955 ft | 76 kts | 47° |
| 2026-05-01 11:53 | -34.82947 | 149.70006 | 2872 ft | 71 kts | 48° |
| 2026-05-01 11:54 | -34.82625 | 149.70446 | 2782 ft | 70 kts | 47° |
| 2026-05-01 11:54 | -34.82289 | 149.70891 | 2658 ft | 72 kts | 49° |
| 2026-05-01 11:54 | -34.81955 | 149.71330 | 2496 ft | 70 kts | 49° |
| 2026-05-01 11:54 | -34.81627 | 149.71774 | 2328 ft | 70 kts | 49° |
| 2026-05-01 11:55 | -34.81305 | 149.72205 | 2167 ft | 66 kts | 47° |
| 2026-05-01 11:55 | -34.81035 | 149.72560 | 2140 ft | 48 kts | 47° |
| 2026-05-01 11:55 | -34.80840 | 149.72817 | 2127 ft | 36 kts | 47° |
| 2026-05-01 11:55 | -34.80691 | 149.73013 | 2117 ft | 29 kts | 47° |
| 2026-05-01 11:56 | -34.80590 | 149.73148 | 2114 ft | 14 kts | 46° |
| 2026-05-01 11:56 | -34.80586 | 149.73241 | 2111 ft | 12 kts | 137° |
| 2026-05-01 11:56 | -34.80610 | 149.73305 | 2110 ft | 7 kts | 48° |
| 2026-05-01 11:56 | -34.80613 | 149.73315 | 2110 ft | 0 kts | 217° |